This is the latest recevied weather packets stored in our database for station/object AE5HO. If no packets are shown the sender has not sent any weather packets the latest 10 day(s).
| Time | Temp. | Humidity | Pressure | Rain* | Wind** | Luminosity | Snow |
|---|---|---|---|---|---|---|---|
| 1777590546 | 17.78° C | 81% | 1013.4 hPa | 0 mm | - | 0 W/m² | - |
| 1777590242 | 17.22° C | 78% | 1013.7 hPa | 0 mm | - | 0 W/m² | - |
| 1777589940 | 16.67° C | 77% | 1013.4 hPa | 0 mm | - | 10 W/m² | - |
| 1777589636 | 16.67° C | 77% | 1013.3 hPa | 0 mm | - | 10 W/m² | - |
| 1777589333 | 16.67° C | 77% | 1013.7 hPa | 0 mm | - | 12 W/m² | - |
| 1777589030 | 16.67° C | 77% | 1013.5 hPa | 0 mm | - | 16 W/m² | - |
| 1777588726 | 16.67° C | 77% | 1013.8 hPa | 0 mm | - | 16 W/m² | - |
| 1777588422 | 16.67° C | 77% | 1013.8 hPa | 0 mm | - | 11 W/m² | - |
| 1777588117 | 16.67° C | 77% | 1013.9 hPa | 0 mm | - | 11 W/m² | - |
| 1777587814 | 16.67° C | 77% | 1013.9 hPa | 0 mm | - | 11 W/m² | - |
| 1777587513 | 17.22° C | 77% | 1014.1 hPa | 0 mm | - | 10 W/m² | - |
| 1777587210 | 16.67° C | 77% | 1013.8 hPa | 0 mm | - | 12 W/m² | - |
| 1777586905 | 17.22° C | 78% | 1014 hPa | 0 mm | - | 13 W/m² | - |
| 1777586601 | 17.22° C | 77% | 1013.7 hPa | 0 mm | - | 12 W/m² | - |
| 1777586297 | 17.22° C | 78% | 1013.7 hPa | 0 mm | - | 17 W/m² | - |
| 1777585995 | 17.22° C | 77% | 1013.9 hPa | 0 mm | - | 13 W/m² | - |
| 1777585690 | 17.22° C | 78% | 1014 hPa | 0 mm | - | 13 W/m² | - |
| 1777585390 | 17.22° C | 78% | 1014.1 hPa | 0 mm | - | 15 W/m² | - |
| 1777585085 | 17.22° C | 78% | 1014.2 hPa | 0 mm | - | 10 W/m² | - |
| 1777584781 | 17.22° C | 77% | 1014.2 hPa | 0 mm | - | 13 W/m² | - |
| 1777584479 | 17.22° C | 78% | 1014.2 hPa | 0 mm | - | 17 W/m² | - |
| 1777584176 | 17.22° C | 77% | 1014.3 hPa | 0 mm | - | 21 W/m² | - |
| 1777583875 | 17.22° C | 77% | 1014 hPa | 0 mm | - | 29 W/m² | - |
| 1777583571 | 17.22° C | 78% | 1013.9 hPa | 0 mm | - | 31 W/m² | - |
| 1777583270 | 17.22° C | 78% | 1014.5 hPa | 0 mm | - | 27 W/m² | - |
* Rain latest hour (hover to see other rain measurements)
** Current wind speed in m/s (hover to see current wind gust speed)